Time;durP1;ratioP1;P1;durP2;ratioP2;P2;SDS_P1;SDS_P2;PMS_P1;PMS_P2;Temp;Humidity;BMP_temperature;BMP_pressure;BME280_temperature;BME280_humidity;BME280_pressure;Samples;Min_cycle;Max_cycle;Signal;HPM_P1;HPM_P2
2023/12/14 00:02:22;;;;;;;4.63;2.60;;;;;;;1.54;100.00;99492.78;4998371;28;20244;-68
2023/12/14 00:04:48;;;;;;;8.47;3.60;;;;;;;1.57;100.00;99490.28;5001787;28;20612;-71
2023/12/14 00:07:16;;;;;;;6.50;2.87;;;;;;;1.47;100.00;99509.97;5001091;28;20208;-72
2023/12/14 00:09:43;;;;;;;6.83;3.40;;;;;;;1.42;100.00;99511.53;4999222;28;20222;-71
2023/12/14 00:12:09;;;;;;;4.87;2.90;;;;;;;1.34;100.00;99514.69;5004886;28;20227;-71
2023/12/14 00:14:36;;;;;;;5.77;3.27;;;;;;;1.25;100.00;99521.38;5001049;28;20265;-69
2023/12/14 00:17:02;;;;;;;5.23;2.67;;;;;;;1.27;100.00;99524.03;5000329;28;20254;-70
2023/12/14 00:19:28;;;;;;;5.60;2.83;;;;;;;1.35;100.00;99529.50;5008114;28;20393;-70
2023/12/14 00:21:55;;;;;;;6.80;3.40;;;;;;;1.37;100.00;99539.16;5001660;28;20255;-71
2023/12/14 00:24:21;;;;;;;4.93;2.90;;;;;;;1.51;100.00;99547.47;5002390;28;20345;-70
2023/12/14 00:26:48;;;;;;;10.77;3.37;;;;;;;1.69;100.00;99549.88;4998490;28;20210;-72
2023/12/14 00:29:14;;;;;;;6.70;2.80;;;;;;;1.58;100.00;99550.34;4999694;28;20200;-71
2023/12/14 00:31:40;;;;;;;9.00;3.40;;;;;;;1.47;100.00;99541.25;4996998;28;20228;-70
2023/12/14 00:34:07;;;;;;;5.70;3.23;;;;;;;1.32;100.00;99545.06;5000826;28;20207;-71
2023/12/14 00:36:33;;;;;;;4.63;2.40;;;;;;;1.16;100.00;99549.69;5000756;28;20276;-70
2023/12/14 00:39:00;;;;;;;5.17;2.63;;;;;;;1.12;100.00;99546.91;5002724;28;20207;-70
2023/12/14 00:41:26;;;;;;;5.50;2.90;;;;;;;1.07;100.00;99553.69;4996925;28;20254;-70
2023/12/14 00:43:53;;;;;;;7.33;2.80;;;;;;;1.21;100.00;99560.31;5007757;28;20589;-70
2023/12/14 00:46:19;;;;;;;6.87;3.47;;;;;;;1.19;100.00;99560.22;4998217;28;20199;-70
2023/12/14 00:48:45;;;;;;;10.83;2.93;;;;;;;1.17;100.00;99559.28;4998936;28;20206;-70
2023/12/14 00:51:12;;;;;;;5.70;3.10;;;;;;;1.25;100.00;99570.03;5006371;28;20220;-68
2023/12/14 00:53:38;;;;;;;9.93;3.40;;;;;;;1.19;100.00;99578.47;5004777;28;20205;-70
2023/12/14 00:56:08;;;;;;;6.20;2.90;;;;;;;1.11;100.00;99579.91;4998806;28;20220;-70
2023/12/14 00:58:34;;;;;;;4.97;2.43;;;;;;;1.06;100.00;99589.28;4997536;28;20223;-70
2023/12/14 01:01:01;;;;;;;6.67;2.70;;;;;;;1.12;100.00;99597.34;4995327;28;20637;-70
2023/12/14 01:03:27;;;;;;;9.27;3.03;;;;;;;1.07;100.00;99598.88;5001027;28;20213;-69
2023/12/14 01:05:54;;;;;;;7.50;2.67;;;;;;;1.15;100.00;99617.44;4998744;28;20199;-70
2023/12/14 01:08:20;;;;;;;5.03;2.80;;;;;;;1.03;100.00;99622.19;5000512;28;21230;-69
2023/12/14 01:10:47;;;;;;;4.97;2.40;;;;;;;0.90;100.00;99626.94;4996748;28;20227;-70
2023/12/14 01:13:13;;;;;;;6.27;3.03;;;;;;;0.83;100.00;99627.53;4997217;28;20222;-69
2023/12/14 01:15:39;;;;;;;4.60;2.37;;;;;;;1.00;100.00;99633.38;4999733;28;20214;-69
2023/12/14 01:18:06;;;;;;;7.57;2.70;;;;;;;1.02;100.00;99639.53;4996780;28;20215;-72
2023/12/14 01:20:32;;;;;;;4.80;2.73;;;;;;;0.90;100.00;99639.06;5013287;28;20205;-69
2023/12/14 01:22:59;;;;;;;6.10;2.30;;;;;;;0.81;100.00;99643.94;4997206;28;20230;-70
2023/12/14 01:25:26;;;;;;;7.00;2.50;;;;;;;0.71;100.00;99649.56;4997431;28;20293;-72
2023/12/14 01:27:52;;;;;;;5.77;2.40;;;;;;;0.68;100.00;99657.25;4996174;28;20689;-72
2023/12/14 01:30:19;;;;;;;5.83;2.83;;;;;;;0.61;100.00;99657.03;4999991;28;20326;-70
2023/12/14 01:32:45;;;;;;;5.63;2.47;;;;;;;0.60;100.00;99670.00;4998411;28;20229;-70
2023/12/14 01:35:12;;;;;;;6.53;2.63;;;;;;;0.65;100.00;99672.78;4998969;28;20211;-70
2023/12/14 01:37:39;;;;;;;8.53;2.53;;;;;;;0.91;100.00;99667.81;4999394;28;20205;-71
2023/12/14 01:40:06;;;;;;;7.47;2.80;;;;;;;1.06;100.00;99675.31;5012364;28;20226;-69
2023/12/14 01:42:32;;;;;;;6.73;2.67;;;;;;;1.31;100.00;99679.78;4996930;28;20224;-68
2023/12/14 01:44:59;;;;;;;6.20;2.70;;;;;;;1.54;100.00;99683.25;5002447;28;20254;-71
2023/12/14 01:47:25;;;;;;;4.40;2.57;;;;;;;1.55;100.00;99683.31;5002466;28;20345;-69
2023/12/14 01:49:52;;;;;;;5.60;2.27;;;;;;;1.61;100.00;99681.78;5002101;28;20211;-70
2023/12/14 01:52:18;;;;;;;6.90;2.37;;;;;;;1.64;100.00;99679.28;5000807;28;20226;-69
2023/12/14 01:54:45;;;;;;;4.30;2.17;;;;;;;1.69;100.00;99683.84;5017148;28;20198;-71
2023/12/14 01:57:11;;;;;;;7.23;2.70;;;;;;;1.78;100.00;99691.13;5002249;28;20294;-69
2023/12/14 01:59:37;;;;;;;6.67;2.70;;;;;;;1.88;100.00;99688.91;5002281;28;20458;-69
2023/12/14 02:02:05;;;;;;;9.03;2.87;;;;;;;2.00;100.00;99693.69;5001642;28;20237;-71
2023/12/14 02:04:32;;;;;;;7.43;2.43;;;;;;;2.08;100.00;99693.97;5003018;28;20218;-68
2023/12/14 02:06:58;;;;;;;5.63;2.70;;;;;;;2.14;100.00;99695.06;5019925;28;20220;-72
2023/12/14 02:09:25;;;;;;;4.37;2.87;;;;;;;2.17;100.00;99705.63;5003011;28;20287;-69
2023/12/14 02:11:51;;;;;;;3.70;2.40;;;;;;;2.30;100.00;99711.25;4998143;28;20250;-72
2023/12/14 02:14:17;;;;;;;6.57;2.70;;;;;;;2.35;100.00;99712.31;5001452;28;20209;-72
2023/12/14 02:16:44;;;;;;;8.03;3.37;;;;;;;2.31;100.00;99713.03;5007605;28;20208;-69
2023/12/14 02:19:10;;;;;;;4.60;2.73;;;;;;;2.43;100.00;99716.09;5008448;28;20200;-69
2023/12/14 02:21:37;;;;;;;6.13;3.07;;;;;;;2.43;100.00;99718.72;5011101;28;20706;-69
2023/12/14 02:24:04;;;;;;;5.00;2.80;;;;;;;2.46;100.00;99721.44;5026772;28;20286;-70
2023/12/14 02:26:30;;;;;;;4.27;2.57;;;;;;;2.59;100.00;99728.84;5018003;28;20233;-69
2023/12/14 02:28:56;;;;;;;5.00;2.37;;;;;;;2.61;100.00;99732.41;5005071;28;20226;-69
2023/12/14 02:31:23;;;;;;;8.03;3.03;;;;;;;2.60;100.00;99734.97;5004383;28;20324;-69
2023/12/14 02:33:50;;;;;;;6.67;2.70;;;;;;;2.56;100.00;99728.75;5001046;28;20582;-72
2023/12/14 02:36:16;;;;;;;3.97;2.57;;;;;;;2.54;100.00;99732.16;5002234;28;20304;-70
2023/12/14 02:38:43;;;;;;;6.77;3.03;;;;;;;2.59;100.00;99738.44;5001844;28;20653;-69
2023/12/14 02:41:10;;;;;;;7.80;3.07;;;;;;;2.74;100.00;99745.06;4999312;28;20215;-69
2023/12/14 02:43:38;;;;;;;4.47;2.53;;;;;;;2.80;100.00;99746.97;5005005;28;20282;-70
2023/12/14 02:46:04;;;;;;;7.80;2.90;;;;;;;2.83;100.00;99741.88;5005592;28;20205;-70
2023/12/14 02:48:31;;;;;;;6.93;2.73;;;;;;;2.85;100.00;99749.78;5005619;28;20204;-70
2023/12/14 02:50:59;;;;;;;6.73;2.87;;;;;;;2.92;100.00;99751.75;5000289;28;20594;-69
2023/12/14 02:53:27;;;;;;;6.33;3.07;;;;;;;2.94;100.00;99750.97;5008554;28;20578;-69
2023/12/14 02:55:53;;;;;;;5.07;2.90;;;;;;;2.89;100.00;99756.88;5007487;28;20620;-70
2023/12/14 02:58:20;;;;;;;5.30;3.03;;;;;;;2.96;100.00;99757.13;5002890;28;20280;-70
2023/12/14 03:00:46;;;;;;;6.90;2.70;;;;;;;2.97;100.00;99763.25;5000789;28;20196;-70
2023/12/14 03:03:13;;;;;;;5.87;3.03;;;;;;;2.89;100.00;99768.22;5014681;28;22294;-71
2023/12/14 03:05:39;;;;;;;8.13;2.57;;;;;;;2.85;100.00;99762.84;5004843;28;20237;-69
2023/12/14 03:08:06;;;;;;;4.23;2.53;;;;;;;2.81;100.00;99767.97;5002673;28;20289;-69
2023/12/14 03:10:32;;;;;;;9.57;2.67;;;;;;;2.85;100.00;99773.31;5001635;28;20772;-70
2023/12/14 03:12:58;;;;;;;5.37;2.30;;;;;;;2.84;100.00;99772.41;5000418;28;20252;-70
2023/12/14 03:15:25;;;;;;;4.33;2.40;;;;;;;2.86;100.00;99775.09;5017065;28;20212;-69
2023/12/14 03:17:51;;;;;;;6.57;2.50;;;;;;;2.89;100.00;99778.69;5001218;28;20208;-71
2023/12/14 03:20:18;;;;;;;3.73;2.37;;;;;;;2.95;100.00;99788.47;5002088;28;20208;-69
2023/12/14 03:22:44;;;;;;;3.67;2.30;;;;;;;2.99;100.00;99783.38;5012680;28;20232;-71
2023/12/14 03:25:11;;;;;;;6.13;3.17;;;;;;;3.04;100.00;99787.03;5000721;28;20208;-71
2023/12/14 03:27:37;;;;;;;5.23;2.80;;;;;;;3.11;100.00;99796.88;5000333;28;20211;-70
2023/12/14 03:30:07;;;;;;;4.23;2.77;;;;;;;3.16;100.00;99799.63;5000872;28;20203;-71
2023/12/14 03:32:34;;;;;;;7.07;3.00;;;;;;;3.24;100.00;99797.28;4998592;28;20767;-70
2023/12/14 03:35:01;;;;;;;4.73;2.63;;;;;;;3.26;100.00;99803.47;5002116;28;20287;-70
2023/12/14 03:37:28;;;;;;;6.97;3.07;;;;;;;3.24;100.00;99815.63;5000787;28;20207;-72
2023/12/14 03:39:54;;;;;;;5.27;2.60;;;;;;;3.26;100.00;99819.16;4997412;28;20214;-70
2023/12/14 03:42:21;;;;;;;5.33;2.87;;;;;;;3.25;100.00;99807.81;4998953;28;20220;-71
2023/12/14 03:44:47;;;;;;;6.10;2.77;;;;;;;3.27;100.00;99811.38;5006863;28;20282;-70
2023/12/14 03:47:14;;;;;;;3.73;2.60;;;;;;;3.29;100.00;99814.91;5012747;28;20743;-70
2023/12/14 03:49:40;;;;;;;4.90;2.87;;;;;;;3.41;100.00;99823.16;4999321;28;20287;-70
2023/12/14 03:52:08;;;;;;;7.73;2.90;;;;;;;3.41;100.00;99824.91;5000488;28;20304;-68
2023/12/14 03:54:35;;;;;;;5.93;2.60;;;;;;;3.45;100.00;99830.28;5002126;28;20242;-70
2023/12/14 03:57:01;;;;;;;5.20;2.70;;;;;;;3.53;100.00;99825.28;4999169;28;20212;-70
2023/12/14 03:59:27;;;;;;;6.17;3.13;;;;;;;3.58;100.00;99838.50;5001253;28;20511;-69
2023/12/14 04:01:54;;;;;;;6.97;2.87;;;;;;;3.56;100.00;99838.47;4999952;28;20604;-72
2023/12/14 04:04:20;;;;;;;5.87;2.93;;;;;;;3.60;100.00;99843.00;5001366;28;20204;-71
2023/12/14 04:06:47;;;;;;;6.27;3.30;;;;;;;3.65;100.00;99851.00;5001678;28;20215;-71
2023/12/14 04:09:13;;;;;;;7.17;3.80;;;;;;;3.77;100.00;99851.38;5002055;28;20203;-70
2023/12/14 04:11:40;;;;;;;7.10;3.27;;;;;;;3.77;100.00;99852.25;4998451;28;20228;-72
2023/12/14 04:14:06;;;;;;;6.13;3.20;;;;;;;3.83;100.00;99853.28;4999522;28;20209;-70
2023/12/14 04:16:32;;;;;;;9.93;3.70;;;;;;;3.87;100.00;99847.31;4998280;28;20337;-71
2023/12/14 04:18:59;;;;;;;5.70;2.97;;;;;;;3.81;100.00;99853.25;4999284;28;20672;-69
2023/12/14 04:21:26;;;;;;;6.03;3.30;;;;;;;3.86;100.00;99862.13;5000522;28;20231;-69
2023/12/14 04:23:52;;;;;;;7.17;3.50;;;;;;;3.88;100.00;99857.81;4998700;28;20231;-71
2023/12/14 04:26:18;;;;;;;9.27;3.83;;;;;;;3.97;100.00;99878.19;5000282;28;20200;-70
2023/12/14 04:28:46;;;;;;;6.20;3.23;;;;;;;3.95;100.00;99879.84;4999909;28;20282;-70
2023/12/14 04:31:12;;;;;;;7.37;4.17;;;;;;;3.91;100.00;99883.22;5000671;28;20224;-70
2023/12/14 04:33:39;;;;;;;5.73;3.40;;;;;;;3.94;100.00;99884.22;5000737;28;20295;-70
2023/12/14 04:36:06;;;;;;;7.10;3.47;;;;;;;4.02;100.00;99894.94;4999743;28;20203;-70
2023/12/14 04:38:33;;;;;;;7.50;3.60;;;;;;;4.07;100.00;99890.75;4994821;28;20247;-70
2023/12/14 04:40:59;;;;;;;5.90;3.47;;;;;;;4.12;100.00;99896.13;4997651;28;20216;-70
2023/12/14 04:43:29;;;;;;;6.30;3.70;;;;;;;4.17;100.00;99897.16;4999224;28;20243;-72
2023/12/14 04:45:55;;;;;;;6.73;3.77;;;;;;;4.15;100.00;99901.47;4999435;28;20564;-70
2023/12/14 04:48:22;;;;;;;6.90;4.07;;;;;;;4.18;100.00;99905.06;5000395;28;20296;-70
2023/12/14 04:50:48;;;;;;;6.07;3.50;;;;;;;4.22;100.00;99921.75;4994028;28;20297;-72
2023/12/14 04:53:15;;;;;;;7.43;4.10;;;;;;;4.22;100.00;99917.41;4999168;28;20225;-71
2023/12/14 04:55:41;;;;;;;5.23;3.47;;;;;;;4.22;100.00;99912.16;4998589;28;20270;-70
2023/12/14 04:58:11;;;;;;;6.87;3.87;;;;;;;4.25;100.00;99911.38;4999851;28;20220;-71
2023/12/14 05:00:38;;;;;;;6.63;3.50;;;;;;;4.20;100.00;99907.72;4996311;28;20288;-70
2023/12/14 05:03:04;;;;;;;7.93;3.73;;;;;;;4.25;100.00;99917.50;5002099;28;20312;-70
2023/12/14 05:05:31;;;;;;;9.13;4.43;;;;;;;4.38;100.00;99927.50;5000120;28;20337;-68
2023/12/14 05:07:57;;;;;;;9.33;4.30;;;;;;;4.37;100.00;99932.72;4999085;28;20211;-72
2023/12/14 05:10:23;;;;;;;6.37;4.03;;;;;;;4.34;100.00;99932.63;4998447;28;20204;-70
2023/12/14 05:12:50;;;;;;;7.83;4.13;;;;;;;4.42;100.00;99939.00;4999363;28;20232;-70
2023/12/14 05:15:16;;;;;;;7.70;4.27;;;;;;;4.40;100.00;99944.22;4999248;28;20213;-70
2023/12/14 05:17:45;;;;;;;9.07;4.73;;;;;;;4.38;100.00;99945.84;5001836;28;20212;-69
2023/12/14 05:20:12;;;;;;;7.80;4.53;;;;;;;4.37;100.00;99957.19;5002210;28;20268;-70
2023/12/14 05:22:38;;;;;;;7.57;4.00;;;;;;;4.41;100.00;99955.59;5004402;28;20686;-69
2023/12/14 05:25:05;;;;;;;8.47;4.40;;;;;;;4.38;100.00;99961.59;5004872;28;20210;-71
2023/12/14 05:27:32;;;;;;;7.30;3.97;;;;;;;4.55;100.00;99966.47;5004300;28;20204;-70
2023/12/14 05:29:58;;;;;;;9.20;4.43;;;;;;;4.46;100.00;99968.81;5002263;28;20851;-70
2023/12/14 05:32:25;;;;;;;9.77;4.27;;;;;;;4.43;100.00;99973.97;5004359;28;20228;-70
2023/12/14 05:34:51;;;;;;;8.37;4.70;;;;;;;4.41;100.00;99968.69;5004038;28;20205;-70
2023/12/14 05:37:18;;;;;;;9.80;4.27;;;;;;;4.39;100.00;99976.47;5003147;28;20316;-70
2023/12/14 05:39:45;;;;;;;9.63;4.37;;;;;;;4.40;100.00;99982.59;5002848;28;20649;-70
2023/12/14 05:42:11;;;;;;;7.60;4.40;;;;;;;4.47;100.00;99992.47;5002806;28;20220;-70
2023/12/14 05:44:38;;;;;;;10.83;4.43;;;;;;;4.51;100.00;100001.31;5002113;28;20206;-70
2023/12/14 05:47:04;;;;;;;12.33;5.20;;;;;;;4.53;100.00;99997.91;5001015;28;20206;-70
2023/12/14 05:49:31;;;;;;;8.30;4.20;;;;;;;4.44;100.00;99999.34;5002812;28;20266;-70
2023/12/14 05:51:59;;;;;;;8.57;4.57;;;;;;;4.41;100.00;100000.16;5017270;23;20228;-77
2023/12/14 05:54:28;;;;;;;9.50;4.27;;;;;;;4.44;100.00;100004.59;4993251;28;20249;-76
2023/12/14 05:56:54;;;;;;;13.70;4.97;;;;;;;4.32;100.00;100005.97;4992139;28;20249;-76
2023/12/14 05:59:20;;;;;;;9.53;4.50;;;;;;;4.35;100.00;100015.66;4992242;28;20646;-76
2023/12/14 06:01:47;;;;;;;17.43;4.93;;;;;;;4.30;100.00;100015.50;4982987;28;20687;-76
2023/12/14 06:04:14;;;;;;;9.20;4.80;;;;;;;4.25;100.00;100022.34;4992506;28;20298;-76
2023/12/14 06:06:43;;;;;;;8.80;4.13;;;;;;;4.22;100.00;100022.25;4989015;28;20205;-76
2023/12/14 06:09:09;;;;;;;8.00;4.23;;;;;;;4.10;100.00;100019.22;5002028;28;20199;-76
2023/12/14 06:11:36;;;;;;;10.17;4.10;;;;;;;4.08;100.00;100032.28;4993972;28;20706;-75
2023/12/14 06:14:03;;;;;;;7.90;4.67;;;;;;;4.08;100.00;100045.38;4991491;28;20206;-75
2023/12/14 06:16:29;;;;;;;8.50;4.60;;;;;;;4.20;100.00;100044.00;4992036;28;20568;-76
2023/12/14 06:18:56;;;;;;;12.70;4.60;;;;;;;4.24;100.00;100052.00;4986423;28;20210;-76
2023/12/14 06:21:25;;;;;;;9.43;4.37;;;;;;;4.23;100.00;100052.84;4995972;28;20634;-75
2023/12/14 06:23:52;;;;;;;7.20;4.20;;;;;;;4.23;100.00;100049.34;4991857;28;20198;-76
2023/12/14 06:26:18;;;;;;;15.33;6.47;;;;;;;4.32;100.00;100066.25;4989321;28;20200;-76
2023/12/14 06:28:45;;;;;;;13.60;6.63;;;;;;;4.39;100.00;100062.97;4990266;28;20203;-76
2023/12/14 06:31:14;;;;;;;10.97;6.20;;;;;;;4.49;100.00;100084.28;4993708;28;20227;-77
2023/12/14 06:33:40;;;;;;;13.10;6.00;;;;;;;4.62;100.00;100086.44;4991520;28;20229;-75
2023/12/14 06:36:10;;;;;;;12.97;5.97;;;;;;;4.67;100.00;100084.88;4993414;28;20206;-75
2023/12/14 06:38:40;;;;;;;10.57;5.83;;;;;;;4.83;100.00;100100.28;4998052;28;20293;-75
2023/12/14 06:41:07;;;;;;;9.90;5.90;;;;;;;4.89;100.00;100100.44;5006805;28;20286;-75
2023/12/14 06:43:33;;;;;;;11.13;6.47;;;;;;;4.92;100.00;100095.31;5012721;28;20291;-75
2023/12/14 06:46:00;;;;;;;12.90;6.70;;;;;;;5.02;100.00;100104.34;5005639;28;20652;-75
2023/12/14 06:48:26;;;;;;;12.70;6.47;;;;;;;5.02;100.00;100106.97;5000375;28;20296;-74
2023/12/14 06:50:54;;;;;;;13.70;7.57;;;;;;;5.02;100.00;100118.34;5004330;28;20310;-75
2023/12/14 06:53:21;;;;;;;14.07;7.17;;;;;;;5.03;100.00;100117.50;4993852;28;20258;-75
2023/12/14 06:55:47;;;;;;;17.20;6.37;;;;;;;5.04;100.00;100115.78;4999562;28;20203;-74
2023/12/14 06:58:14;;;;;;;13.07;7.20;;;;;;;5.09;100.00;100124.69;4990587;28;20197;-74
2023/12/14 07:00:41;;;;;;;15.10;7.70;;;;;;;5.13;100.00;100133.53;4991377;28;20216;-75
2023/12/14 07:03:07;;;;;;;11.97;6.57;;;;;;;5.07;100.00;100139.47;4998788;28;20270;-74
2023/12/14 07:05:34;;;;;;;10.57;6.27;;;;;;;5.04;100.00;100140.28;4993340;28;20665;-74
2023/12/14 07:08:01;;;;;;;12.20;6.23;;;;;;;5.03;100.00;100149.00;4989081;28;20401;-74
2023/12/14 07:10:27;;;;;;;10.07;5.57;;;;;;;5.01;100.00;100142.81;4989200;28;20645;-74
2023/12/14 07:12:54;;;;;;;11.17;5.77;;;;;;;5.16;100.00;100158.13;4989798;28;20294;-74
2023/12/14 07:15:20;;;;;;;11.93;5.70;;;;;;;5.18;100.00;100156.44;4968966;28;20606;-74
2023/12/14 07:17:47;;;;;;;13.33;6.67;;;;;;;5.28;100.00;100147.16;4981472;28;20232;-74
2023/12/14 07:20:15;;;;;;;12.83;6.23;;;;;;;5.29;100.00;100162.06;4980590;28;20278;-74
2023/12/14 07:22:42;;;;;;;16.57;6.47;;;;;;;5.26;100.00;100164.59;4998006;28;20469;-74
2023/12/14 07:25:08;;;;;;;14.57;7.33;;;;;;;5.41;100.00;100174.66;4994927;28;20302;-74
2023/12/14 07:27:35;;;;;;;12.20;6.87;;;;;;;5.42;100.00;100179.06;5003689;28;20205;-74
2023/12/14 07:30:01;;;;;;;13.23;7.80;;;;;;;5.46;100.00;100188.81;5000439;28;20220;-74
2023/12/14 07:32:28;;;;;;;14.00;7.13;;;;;;;5.54;100.00;100193.44;5007921;28;20254;-74
2023/12/14 07:34:54;;;;;;;13.80;6.87;;;;;;;5.49;100.00;100191.53;4998367;28;20220;-74
2023/12/14 07:37:21;;;;;;;16.83;7.70;;;;;;;5.49;100.00;100191.53;4997557;28;20206;-74
2023/12/14 07:39:47;;;;;;;13.30;6.73;;;;;;;5.48;100.00;100209.03;4998321;28;20324;-74
2023/12/14 07:42:19;;;;;;;16.83;7.03;;;;;;;5.48;100.00;100210.75;4992213;28;20200;-74
2023/12/14 07:44:46;;;;;;;16.03;7.17;;;;;;;5.47;100.00;100209.88;4996460;28;20197;-74
2023/12/14 07:47:13;;;;;;;12.37;6.57;;;;;;;5.52;100.00;100225.75;4993442;28;20286;-74
2023/12/14 07:49:40;;;;;;;15.80;7.23;;;;;;;5.63;100.00;100233.16;4998959;28;20699;-74
2023/12/14 07:52:06;;;;;;;13.90;8.03;;;;;;;5.74;100.00;100235.22;5000120;28;20248;-74
2023/12/14 07:54:33;;;;;;;14.70;7.63;;;;;;;5.68;100.00;100238.53;4993075;28;21280;-74
2023/12/14 07:56:59;;;;;;;13.43;6.33;;;;;;;5.70;100.00;100241.22;4999873;28;20609;-74
2023/12/14 07:59:26;;;;;;;16.07;7.80;;;;;;;5.68;100.00;100241.16;4996837;28;20687;-74
2023/12/14 08:01:52;;;;;;;16.80;7.33;;;;;;;5.70;100.00;100236.84;5016997;28;20571;-75
2023/12/14 08:04:19;;;;;;;13.03;6.93;;;;;;;5.79;100.00;100250.25;4994899;28;20207;-74
2023/12/14 08:06:45;;;;;;;18.53;7.47;;;;;;;5.81;100.00;100250.31;4993514;28;20220;-74
2023/12/14 08:09:12;;;;;;;12.80;6.80;;;;;;;5.91;100.00;100258.53;4997813;28;20288;-74
2023/12/14 08:11:38;;;;;;;11.13;6.43;;;;;;;5.90;100.00;100258.50;5011222;28;20240;-74
2023/12/14 08:14:05;;;;;;;13.17;6.90;;;;;;;5.91;100.00;100260.28;4990918;28;20276;-75
2023/12/14 08:16:31;;;;;;;11.20;5.80;;;;;;;5.89;100.00;100259.31;4995850;28;20300;-75
2023/12/14 08:18:58;;;;;;;14.03;6.03;;;;;;;5.96;100.00;100262.19;4999711;28;20230;-75
2023/12/14 08:21:24;;;;;;;13.17;7.10;;;;;;;6.03;100.00;100279.06;4990537;28;20219;-74
2023/12/14 08:23:51;;;;;;;15.87;7.07;;;;;;;6.13;100.00;100286.38;4992593;28;20225;-75
2023/12/14 08:26:18;;;;;;;15.53;7.73;;;;;;;6.12;100.00;100287.22;4993935;28;20201;-74
2023/12/14 08:28:44;;;;;;;11.87;6.17;;;;;;;6.22;100.00;100293.63;4992030;28;20239;-75
2023/12/14 08:31:11;;;;;;;14.37;6.53;;;;;;;6.22;100.00;100297.13;4997197;28;20216;-75
2023/12/14 08:33:41;;;;;;;8.97;4.40;;;;;;;6.40;100.00;100302.03;4992358;28;20787;-74
2023/12/14 08:36:08;;;;;;;9.27;4.87;;;;;;;6.54;100.00;100313.84;4993325;28;20703;-75
2023/12/14 08:38:34;;;;;;;10.37;5.03;;;;;;;6.66;100.00;100315.03;5001221;28;20215;-75
2023/12/14 08:41:01;;;;;;;10.73;4.90;;;;;;;6.82;100.00;100312.00;4998729;28;20261;-75
2023/12/14 08:43:27;;;;;;;9.00;4.50;;;;;;;6.93;100.00;100312.28;4997383;28;20208;-75
2023/12/14 08:45:54;;;;;;;7.03;4.20;;;;;;;6.98;100.00;100336.97;4993755;28;20284;-75
2023/12/14 08:48:20;;;;;;;8.47;5.00;;;;;;;7.03;100.00;100323.06;4992678;28;20633;-80
2023/12/14 08:50:47;;;;;;;7.67;4.13;;;;;;;7.14;100.00;100342.69;4999307;28;20308;-77
2023/12/14 08:53:13;;;;;;;10.40;4.40;;;;;;;7.20;100.00;100342.88;4995561;28;20229;-76
2023/12/14 08:55:40;;;;;;;8.10;4.40;;;;;;;7.32;100.00;100357.19;4995479;28;20192;-76
2023/12/14 08:58:06;;;;;;;7.90;4.23;;;;;;;7.37;100.00;100371.38;5008041;28;20212;-76
2023/12/14 09:00:33;;;;;;;8.90;4.20;;;;;;;7.43;100.00;100363.63;5006230;28;20240;-75
2023/12/14 09:02:59;;;;;;;10.00;4.30;;;;;;;7.51;100.00;100367.34;5006465;28;20202;-75
2023/12/14 09:05:26;;;;;;;9.07;4.57;;;;;;;7.57;100.00;100369.22;4995739;28;20198;-75
2023/12/14 09:07:55;;;;;;;9.13;3.90;;;;;;;7.61;100.00;100373.75;4991785;28;20205;-75
2023/12/14 09:10:22;;;;;;;9.23;4.37;;;;;;;7.69;100.00;100372.19;4993981;28;20352;-76
2023/12/14 09:12:49;;;;;;;7.27;4.00;;;;;;;7.67;100.00;100374.78;4990584;28;20304;-80
2023/12/14 09:15:16;;;;;;;6.53;3.47;;;;;;;7.79;100.00;100372.44;5017813;28;20581;-76
2023/12/14 09:17:43;;;;;;;6.90;3.40;;;;;;;7.75;100.00;100365.31;4994741;28;20207;-74
2023/12/14 09:20:11;;;;;;;6.20;3.73;;;;;;;7.83;100.00;100376.94;5005665;28;20384;-74
2023/12/14 09:22:37;;;;;;;5.90;3.40;;;;;;;7.93;100.00;100383.31;5009442;28;20635;-74
2023/12/14 09:25:04;;;;;;;6.90;3.20;;;;;;;7.89;100.00;100377.94;5002542;28;20202;-75
2023/12/14 09:27:31;;;;;;;9.10;3.83;;;;;;;7.82;100.00;100376.91;5001882;28;20601;-74
2023/12/14 09:29:58;;;;;;;7.17;3.63;;;;;;;7.90;100.00;100404.34;4994925;28;20692;-75
2023/12/14 09:32:24;;;;;;;6.67;3.53;;;;;;;7.90;100.00;100406.06;5005467;28;20359;-74
2023/12/14 09:34:51;;;;;;;7.90;4.10;;;;;;;8.02;100.00;100412.56;4986525;28;20203;-74
2023/12/14 09:37:19;;;;;;;7.07;3.67;;;;;;;8.04;100.00;100425.78;4999612;28;20274;-75
2023/12/14 09:39:45;;;;;;;12.57;3.90;;;;;;;8.12;100.00;100419.81;5006131;28;20301;-75
2023/12/14 09:42:17;;;;;;;9.07;4.10;;;;;;;8.12;100.00;100435.66;5002016;28;20203;-74
2023/12/14 09:44:45;;;;;;;7.50;3.20;;;;;;;8.11;100.00;100430.34;4989636;28;20199;-74
2023/12/14 09:47:11;;;;;;;8.30;3.87;;;;;;;8.04;100.00;100433.69;4995249;28;20248;-74
2023/12/14 09:49:40;;;;;;;6.60;3.90;;;;;;;8.06;100.00;100437.25;4991380;28;20234;-74
2023/12/14 09:52:07;;;;;;;6.83;3.00;;;;;;;7.98;100.00;100444.97;5001953;28;20215;-75
2023/12/14 09:54:33;;;;;;;9.03;3.80;;;;;;;8.04;100.00;100454.78;4995100;28;20605;-74
2023/12/14 09:57:00;;;;;;;6.63;3.50;;;;;;;8.04;100.00;100455.69;5007852;28;20201;-74
2023/12/14 09:59:27;;;;;;;7.43;3.37;;;;;;;8.03;100.00;100453.91;4987995;28;20208;-74
2023/12/14 10:02:09;;;;;;;5.97;3.83;;;;;;;8.10;100.00;100461.09;5003280;28;20386;-74
2023/12/14 10:04:36;;;;;;;6.27;3.33;;;;;;;8.07;100.00;100468.94;4997057;28;20198;-74
2023/12/14 10:07:06;;;;;;;7.00;3.53;;;;;;;7.92;100.00;100468.53;4999899;28;20231;-74
2023/12/14 10:09:37;;;;;;;6.70;3.80;;;;;;;7.90;100.00;100472.88;4992412;28;20270;-74
2023/12/14 10:12:08;;;;;;;9.70;4.20;;;;;;;7.76;100.00;100464.63;4997228;28;20211;-74
2023/12/14 10:14:36;;;;;;;7.03;3.27;;;;;;;7.83;100.00;100482.41;4984799;28;20204;-74
2023/12/14 10:17:18;;;;;;;5.73;3.47;;;;;;;7.79;100.00;100483.16;4989689;28;20291;-74
2023/12/14 10:19:46;;;;;;;6.93;3.40;;;;;;;7.79;100.00;100490.19;4990265;28;20251;-74
2023/12/14 10:22:20;;;;;;;7.77;3.77;;;;;;;7.78;100.00;100486.66;4989266;28;20198;-74
2023/12/14 10:24:47;;;;;;;5.27;3.30;;;;;;;7.84;100.00;100499.09;4988966;28;20201;-74
2023/12/14 10:27:16;;;;;;;7.07;3.37;;;;;;;7.75;100.00;100489.22;4989921;28;20292;-74
2023/12/14 10:29:45;;;;;;;7.47;3.80;;;;;;;7.86;100.00;100495.66;4988510;28;20315;-74
2023/12/14 10:32:12;;;;;;;9.43;3.63;;;;;;;7.89;100.00;100496.59;4989231;28;20579;-74
2023/12/14 10:34:41;;;;;;;6.93;3.30;;;;;;;7.90;100.00;100488.72;4987928;28;20649;-74
2023/12/14 10:37:08;;;;;;;7.03;3.37;;;;;;;8.02;100.00;100502.22;4990788;28;20204;-74
2023/12/14 10:39:35;;;;;;;6.60;3.80;;;;;;;8.04;100.00;100494.34;4997510;28;20228;-75
2023/12/14 10:42:04;;;;;;;6.70;3.57;;;;;;;8.08;100.00;100502.38;4972627;28;20203;-73
2023/12/14 10:44:45;;;;;;;6.17;3.13;;;;;;;8.13;100.00;100502.50;5011805;28;20204;-73
2023/12/14 10:47:33;;;;;;;7.47;3.77;;;;;;;8.00;100.00;100500.38;4996018;28;20215;-73
2023/12/14 10:50:01;;;;;;;6.70;3.50;;;;;;;8.08;100.00;100509.41;4998028;28;20835;-74
2023/12/14 10:52:29;;;;;;;7.37;4.17;;;;;;;8.17;100.00;100505.25;4991939;28;20225;-73
2023/12/14 10:55:00;;;;;;;5.53;3.40;;;;;;;8.25;100.00;100512.44;5000868;28;20204;-74
2023/12/14 10:57:28;;;;;;;6.43;3.67;;;;;;;8.32;100.00;100517.00;4995174;28;20375;-73
2023/12/14 10:59:59;;;;;;;5.77;3.13;;;;;;;8.32;100.00;100522.28;4994947;28;20617;-73
2023/12/14 11:02:25;;;;;;;5.73;3.33;;;;;;;8.27;100.00;100526.56;4997222;28;20200;-73
2023/12/14 11:05:05;;;;;;;6.20;3.07;;;;;;;8.39;100.00;100534.81;4997589;28;20197;-74
2023/12/14 11:07:46;;;;;;;7.60;3.60;;;;;;;8.47;100.00;100533.28;5002083;28;20252;-76
2023/12/14 11:10:14;;;;;;;5.87;3.40;;;;;;;8.60;100.00;100537.09;4991203;28;20308;-73
2023/12/14 11:13:00;;;;;;;6.20;3.47;;;;;;;8.62;100.00;100548.56;4990569;28;20225;-73
2023/12/14 11:15:28;;;;;;;7.33;3.30;;;;;;;8.67;100.00;100531.97;4994604;28;20207;-74
2023/12/14 11:18:07;;;;;;;7.10;3.53;;;;;;;8.72;100.00;100547.91;4998140;28;20653;-74
2023/12/14 11:20:57;;;;;;;5.27;3.30;;;;;;;8.67;100.00;100552.22;4990646;28;20217;-74
2023/12/14 11:23:32;;;;;;;5.13;3.20;;;;;;;8.45;100.00;100551.72;4996756;28;20933;-74
2023/12/14 11:26:03;;;;;;;6.80;3.60;;;;;;;8.45;100.00;100559.63;4991832;28;20197;-73
2023/12/14 11:28:35;;;;;;;6.97;3.53;;;;;;;8.42;100.00;100566.59;5007536;28;20250;-73